createdAt,value
2023-07-08T00:00:28.511Z,230.77
2023-07-08T00:01:28.565Z,229.71
2023-07-08T00:02:28.560Z,231.47
2023-07-08T00:03:28.473Z,231.27
2023-07-08T00:04:28.501Z,228.96
2023-07-08T00:05:28.458Z,232.42
2023-07-08T00:06:28.520Z,229.96
2023-07-08T00:07:28.472Z,230.24
2023-07-08T00:08:28.429Z,230.35
2023-07-08T00:09:28.495Z,231.17
2023-07-08T00:10:28.444Z,231.63
2023-07-08T00:11:28.469Z,232.52
2023-07-08T00:12:28.433Z,230.63
2023-07-08T00:13:28.463Z,231.99
2023-07-08T00:14:28.425Z,232.36
2023-07-08T00:15:28.417Z,232.12
2023-07-08T00:16:28.454Z,231.82
2023-07-08T00:17:28.393Z,232.16
2023-07-08T00:18:28.359Z,230.46
2023-07-08T00:19:28.391Z,230.85
2023-07-08T00:20:28.388Z,230.91
2023-07-08T00:21:28.399Z,228.99
2023-07-08T00:22:28.365Z,230.10
2023-07-08T00:23:28.376Z,231.62
2023-07-08T00:24:28.381Z,229.34
2023-07-08T00:25:28.389Z,232.25
2023-07-08T00:26:28.329Z,230.96
2023-07-08T00:27:28.336Z,231.09
2023-07-08T00:28:28.960Z,232.22
2023-07-08T00:29:28.324Z,230.41
2023-07-08T00:30:28.355Z,231.69
2023-07-08T00:31:28.455Z,231.26
2023-07-08T00:32:28.308Z,233.73
2023-07-08T00:33:28.333Z,233.28
2023-07-08T00:34:28.269Z,234.05
2023-07-08T00:35:28.279Z,232.02
2023-07-08T00:36:28.277Z,232.41
2023-07-08T00:37:28.270Z,233.08
2023-07-08T00:38:28.524Z,230.80
2023-07-08T00:39:28.238Z,232.99
2023-07-08T00:40:28.282Z,233.12
2023-07-08T00:41:28.228Z,232.40
2023-07-08T00:42:28.220Z,234.26
2023-07-08T00:43:28.253Z,232.05
2023-07-08T00:44:29.072Z,233.74
2023-07-08T00:45:28.222Z,232.78
2023-07-08T00:46:28.349Z,233.78
2023-07-08T00:47:28.257Z,232.63
2023-07-08T00:48:28.255Z,232.08
2023-07-08T00:49:28.181Z,231.52
2023-07-08T00:50:28.205Z,233.85
2023-07-08T00:51:28.163Z,232.65
2023-07-08T00:52:28.169Z,232.55
2023-07-08T00:53:28.174Z,233.09
2023-07-08T00:54:28.173Z,233.62
2023-07-08T00:55:28.188Z,233.45
2023-07-08T00:56:28.112Z,235.70
2023-07-08T00:57:28.144Z,232.61
2023-07-08T00:58:28.155Z,234.97
2023-07-08T00:59:28.129Z,233.48
2023-07-08T01:00:28.126Z,233.13
2023-07-08T01:01:28.164Z,232.49
2023-07-08T01:02:28.182Z,233.59
2023-07-08T01:03:28.248Z,233.35
2023-07-08T01:04:28.076Z,234.70
2023-07-08T01:05:28.093Z,232.82
2023-07-08T01:06:28.089Z,233.63
2023-07-08T01:07:28.084Z,234.08
2023-07-08T01:08:28.080Z,234.52
2023-07-08T01:09:28.076Z,234.93
2023-07-08T01:10:28.088Z,232.98
2023-07-08T01:11:28.089Z,234.74
2023-07-08T01:12:28.020Z,234.65
2023-07-08T01:13:28.633Z,234.12
2023-07-08T01:14:28.056Z,231.95
2023-07-08T01:15:28.011Z,233.07
2023-07-08T01:16:28.042Z,234.01
2023-07-08T01:17:28.112Z,235.11
2023-07-08T01:18:28.037Z,232.72
2023-07-08T01:19:28.049Z,235.34
2023-07-08T01:20:28.001Z,233.59
2023-07-08T01:21:27.989Z,233.83
2023-07-08T01:22:27.957Z,235.26
2023-07-08T01:23:27.972Z,234.24
2023-07-08T01:24:28.599Z,235.53
2023-07-08T01:25:27.983Z,234.82
2023-07-08T01:26:27.997Z,235.02
2023-07-08T01:27:27.932Z,233.92
2023-07-08T01:28:27.929Z,235.26
2023-07-08T01:29:28.523Z,235.26
2023-07-08T01:30:27.916Z,233.26
2023-07-08T01:31:27.946Z,235.06
2023-07-08T01:32:28.125Z,235.96
2023-07-08T01:33:27.940Z,236.56
2023-07-08T01:34:27.892Z,237.15
2023-07-08T01:35:27.884Z,235.42
2023-07-08T01:36:27.881Z,235.13
2023-07-08T01:37:27.869Z,236.25
2023-07-08T01:38:27.870Z,235.85
2023-07-08T01:39:27.873Z,235.28
2023-07-08T01:40:27.881Z,235.29
2023-07-08T01:41:27.821Z,236.65
2023-07-08T01:42:27.825Z,235.53
2023-07-08T01:43:27.821Z,234.76
2023-07-08T01:44:27.810Z,235.34
2023-07-08T01:45:27.807Z,235.95
2023-07-08T01:46:27.844Z,235.75
2023-07-08T01:47:27.838Z,234.16
2023-07-08T01:48:27.833Z,235.00
2023-07-08T01:49:27.766Z,237.05
2023-07-08T01:50:27.781Z,236.39
2023-07-08T01:51:27.800Z,236.88
2023-07-08T01:52:27.772Z,237.02
2023-07-08T01:53:27.766Z,237.09
2023-07-08T01:54:27.773Z,236.77
2023-07-08T01:55:27.769Z,238.07
2023-07-08T01:56:27.787Z,236.44
2023-07-08T01:57:27.794Z,237.67
2023-07-08T01:58:27.795Z,237.24
2023-07-08T01:59:27.834Z,235.81
2023-07-08T02:00:27.840Z,235.23
2023-07-08T02:01:27.873Z,237.69
2023-07-08T02:02:27.875Z,237.23
2023-07-08T02:03:27.856Z,235.67
2023-07-08T02:04:27.872Z,236.75
2023-07-08T02:05:27.932Z,237.14
2023-07-08T02:06:27.891Z,236.19
2023-07-08T02:07:27.878Z,237.13
2023-07-08T02:08:27.894Z,236.40
2023-07-08T02:09:27.925Z,236.34
2023-07-08T02:10:27.930Z,236.73
2023-07-08T02:11:27.935Z,238.66
2023-07-08T02:12:27.929Z,237.01
2023-07-08T02:13:28.035Z,238.13
2023-07-08T02:14:28.093Z,237.31
2023-07-08T02:15:27.962Z,236.28
2023-07-08T02:16:28.070Z,236.96
2023-07-08T02:17:27.959Z,236.36
2023-07-08T02:18:27.981Z,237.91
2023-07-08T02:19:28.045Z,238.10
2023-07-08T02:20:27.986Z,235.99
2023-07-08T02:21:28.063Z,237.95
2023-07-08T02:22:28.005Z,236.34
2023-07-08T02:23:28.012Z,238.90
2023-07-08T02:24:28.014Z,237.62
2023-07-08T02:25:28.011Z,237.70
2023-07-08T02:26:28.033Z,238.74
2023-07-08T02:27:28.044Z,237.95
2023-07-08T02:28:28.054Z,238.07
2023-07-08T02:29:28.099Z,237.77
2023-07-08T02:30:28.113Z,236.93
2023-07-08T02:31:28.183Z,238.24
2023-07-08T02:32:28.155Z,239.16
2023-07-08T02:33:28.140Z,238.66
2023-07-08T02:34:28.148Z,237.30
2023-07-08T02:35:28.194Z,237.77
2023-07-08T02:36:28.197Z,236.29
2023-07-08T02:37:28.201Z,239.08
2023-07-08T02:38:28.204Z,237.61
2023-07-08T02:39:28.229Z,237.65
2023-07-08T02:40:28.240Z,238.95
2023-07-08T02:41:28.222Z,237.75
2023-07-08T02:42:28.221Z,238.81
2023-07-08T02:43:28.258Z,239.55
2023-07-08T02:44:28.259Z,238.64
2023-07-08T02:45:28.319Z,238.72
2023-07-08T02:46:28.443Z,239.23
2023-07-08T02:47:28.310Z,239.54
2023-07-08T02:48:28.324Z,238.72
2023-07-08T02:49:29.100Z,239.70
2023-07-08T02:50:28.286Z,240.13
2023-07-08T02:51:28.404Z,238.30
2023-07-08T02:52:29.658Z,239.44
2023-07-08T02:53:28.384Z,237.54
2023-07-08T02:54:28.324Z,238.44
2023-07-08T02:55:28.400Z,239.34
2023-07-08T02:56:28.390Z,239.14
2023-07-08T02:57:28.426Z,238.69
2023-07-08T02:58:28.418Z,240.16
2023-07-08T02:59:28.432Z,240.01
2023-07-08T03:00:28.489Z,238.74
2023-07-08T03:01:28.551Z,238.66
2023-07-08T03:02:28.508Z,237.71
2023-07-08T03:03:28.530Z,239.36
2023-07-08T03:04:28.500Z,238.25
2023-07-08T03:05:28.486Z,239.42
2023-07-08T03:06:28.520Z,240.19
2023-07-08T03:07:28.511Z,240.01
2023-07-08T03:08:28.597Z,239.85
2023-07-08T03:09:28.596Z,240.06
2023-07-08T03:10:28.603Z,240.30
2023-07-08T03:11:28.656Z,241.42
2023-07-08T03:12:28.662Z,240.11
2023-07-08T03:13:28.694Z,240.29
2023-07-08T03:14:28.659Z,239.78
2023-07-08T03:15:28.742Z,239.66
2023-07-08T03:16:28.753Z,240.34
2023-07-08T03:17:28.777Z,239.00
2023-07-08T03:18:28.736Z,239.90
2023-07-08T03:19:28.765Z,239.61
2023-07-08T03:20:28.778Z,239.74
2023-07-08T03:21:28.816Z,239.30
2023-07-08T03:22:28.892Z,240.71
2023-07-08T03:23:28.782Z,240.66
2023-07-08T03:24:28.797Z,240.88
2023-07-08T03:25:28.817Z,239.64
2023-07-08T03:26:31.339Z,240.53
2023-07-08T03:27:28.817Z,243.62
2023-07-08T03:28:28.831Z,240.61
2023-07-08T03:29:28.842Z,241.41
2023-07-08T03:30:28.795Z,239.95
2023-07-08T03:31:28.793Z,240.77
2023-07-08T03:32:28.816Z,241.05
2023-07-08T03:33:28.802Z,239.94
2023-07-08T03:34:28.781Z,240.20
2023-07-08T03:35:28.786Z,242.00
2023-07-08T03:36:28.801Z,238.51
2023-07-08T03:37:28.723Z,239.53
2023-07-08T03:38:28.748Z,238.69
2023-07-08T03:39:28.730Z,238.66
2023-07-08T03:40:28.765Z,239.11
2023-07-08T03:41:28.757Z,239.65
2023-07-08T03:42:28.706Z,240.37
2023-07-08T03:43:28.695Z,240.76
2023-07-08T03:44:28.746Z,240.42
2023-07-08T03:45:28.733Z,240.26
2023-07-08T03:46:28.716Z,239.44
2023-07-08T03:47:28.713Z,240.93
2023-07-08T03:48:28.690Z,240.07
2023-07-08T03:49:28.667Z,239.22
2023-07-08T03:50:28.676Z,238.20
2023-07-08T03:51:28.757Z,238.87
2023-07-08T03:52:28.676Z,239.11
2023-07-08T03:53:28.699Z,239.40
2023-07-08T03:54:28.654Z,240.90
2023-07-08T03:55:28.647Z,239.45
2023-07-08T03:56:28.676Z,240.00
2023-07-08T03:57:28.613Z,239.96
2023-07-08T03:58:28.632Z,239.75
2023-07-08T03:59:28.641Z,239.10
2023-07-08T04:00:28.643Z,239.61
2023-07-08T04:01:28.691Z,240.69
2023-07-08T04:02:28.660Z,239.32
2023-07-08T04:03:28.750Z,237.56
2023-07-08T04:04:28.602Z,238.92
2023-07-08T04:05:28.593Z,239.09
2023-07-08T04:06:28.583Z,239.43
2023-07-08T04:07:28.628Z,238.06
2023-07-08T04:08:28.557Z,238.75
2023-07-08T04:09:28.542Z,238.69
2023-07-08T04:10:28.558Z,240.39
2023-07-08T04:11:28.555Z,238.13
2023-07-08T04:12:28.579Z,238.54
2023-07-08T04:13:28.563Z,238.65
2023-07-08T04:14:28.529Z,236.45
2023-07-08T04:15:28.506Z,235.74
2023-07-08T04:16:28.589Z,236.05
2023-07-08T04:17:28.501Z,235.54
2023-07-08T04:18:28.520Z,231.82
2023-07-08T04:19:28.650Z,225.25
2023-07-08T04:20:28.488Z,213.76
2023-07-08T04:21:28.521Z,212.82
2023-07-08T04:22:28.455Z,211.91
2023-07-08T04:23:28.452Z,211.33
2023-07-08T04:24:28.434Z,210.02
2023-07-08T04:25:29.499Z,211.79
2023-07-08T04:26:28.464Z,212.99
2023-07-08T04:27:28.464Z,213.89
2023-07-08T04:28:28.435Z,215.47
2023-07-08T04:29:28.426Z,217.79
2023-07-08T04:30:28.437Z,218.05
2023-07-08T04:31:28.507Z,220.89
2023-07-08T04:32:28.391Z,224.24
2023-07-08T04:33:28.380Z,224.47
2023-07-08T04:34:28.468Z,226.98
2023-07-08T04:35:28.367Z,226.53
2023-07-08T04:36:28.382Z,226.00
2023-07-08T04:37:28.413Z,230.86
2023-07-08T04:38:28.333Z,231.36
2023-07-08T04:39:28.441Z,230.54
2023-07-08T04:40:28.394Z,229.99
2023-07-08T04:41:28.328Z,229.04
2023-07-08T04:42:28.364Z,226.43
2023-07-08T04:43:28.350Z,229.54
2023-07-08T04:44:28.336Z,229.81
2023-07-08T04:45:28.333Z,232.41
2023-07-08T04:46:28.409Z,230.08
2023-07-08T04:47:28.388Z,229.78
2023-07-08T04:48:28.284Z,229.98
2023-07-08T04:49:28.300Z,233.48
2023-07-08T04:50:28.312Z,231.07
2023-07-08T04:51:28.267Z,232.31
2023-07-08T04:52:28.330Z,228.22
2023-07-08T04:53:28.357Z,231.53
2023-07-08T04:54:28.407Z,227.29
2023-07-08T04:55:28.393Z,231.08
2023-07-08T04:56:28.386Z,234.03
2023-07-08T04:57:28.354Z,232.89
2023-07-08T04:58:28.363Z,233.24
2023-07-08T04:59:28.374Z,233.74
2023-07-08T05:00:28.388Z,234.77
2023-07-08T05:01:28.476Z,233.00
2023-07-08T05:02:28.520Z,229.56
2023-07-08T05:03:28.511Z,220.26
2023-07-08T05:04:28.429Z,218.41
2023-07-08T05:05:28.478Z,208.42
2023-07-08T05:06:28.471Z,210.68
2023-07-08T05:07:28.491Z,213.22
2023-07-08T05:08:28.522Z,210.47
2023-07-08T05:09:28.514Z,212.98
2023-07-08T05:10:28.521Z,214.70
2023-07-08T05:11:28.531Z,216.13
2023-07-08T05:12:28.587Z,215.16
2023-07-08T05:13:28.702Z,216.10
2023-07-08T05:14:28.738Z,217.84
2023-07-08T05:15:28.707Z,222.11
2023-07-08T05:16:28.863Z,219.14
2023-07-08T05:17:28.775Z,222.51
2023-07-08T05:18:28.727Z,215.56
2023-07-08T05:19:28.780Z,219.07
2023-07-08T05:20:28.747Z,214.98
2023-07-08T05:21:28.802Z,212.30
2023-07-08T05:22:28.901Z,214.13
2023-07-08T05:23:28.906Z,214.04
2023-07-08T05:24:29.009Z,215.16
2023-07-08T05:25:29.034Z,218.54
2023-07-08T05:26:29.030Z,221.37
2023-07-08T05:27:29.045Z,226.70
2023-07-08T05:28:29.038Z,230.25
2023-07-08T05:29:29.118Z,227.95
2023-07-08T05:30:29.104Z,226.87
2023-07-08T05:31:42.191Z,222.61
2023-07-08T05:32:30.185Z,222.68
2023-07-08T05:33:29.071Z,219.19
2023-07-08T05:34:29.131Z,213.68
2023-07-08T05:35:29.080Z,213.34
2023-07-08T05:36:29.059Z,215.12
2023-07-08T05:37:29.065Z,210.41
2023-07-08T05:38:29.116Z,206.31
2023-07-08T05:39:29.060Z,203.39
2023-07-08T05:40:29.100Z,205.31
2023-07-08T05:41:29.028Z,208.68
2023-07-08T05:42:28.994Z,214.15
2023-07-08T05:43:29.031Z,215.40
2023-07-08T05:44:29.010Z,214.69
2023-07-08T05:45:28.976Z,218.25
2023-07-08T05:46:29.062Z,213.11
2023-07-08T05:47:29.018Z,210.98
2023-07-08T05:48:28.971Z,213.09
2023-07-08T05:49:28.979Z,206.02
2023-07-08T05:50:28.952Z,213.55
2023-07-08T05:51:28.969Z,209.10
2023-07-08T05:52:28.930Z,206.25
2023-07-08T05:53:28.972Z,204.84
2023-07-08T05:54:28.952Z,207.74
2023-07-08T05:55:28.981Z,210.96
2023-07-08T05:56:28.953Z,216.08
2023-07-08T05:57:29.050Z,221.79
2023-07-08T05:58:29.105Z,228.15
2023-07-08T05:59:29.139Z,228.65
2023-07-08T06:00:38.442Z,227.34
2023-07-08T06:01:30.111Z,227.47
2023-07-08T06:02:29.094Z,227.47
2023-07-08T06:03:29.111Z,221.90
2023-07-08T06:04:29.041Z,225.69
2023-07-08T06:05:29.092Z,218.97
2023-07-08T06:06:29.092Z,216.88
2023-07-08T06:07:29.042Z,219.68
2023-07-08T06:08:29.037Z,223.33
2023-07-08T06:09:29.083Z,226.03
2023-07-08T06:10:29.022Z,225.23
2023-07-08T06:11:29.961Z,227.32
2023-07-08T06:12:29.043Z,228.80
2023-07-08T06:13:29.070Z,226.53
2023-07-08T06:14:29.048Z,223.10
2023-07-08T06:15:29.710Z,219.15
2023-07-08T06:16:40.142Z,216.27
2023-07-08T06:17:30.126Z,216.46
2023-07-08T06:18:29.004Z,216.52
2023-07-08T06:19:29.696Z,213.70
2023-07-08T06:20:28.991Z,213.76
2023-07-08T06:21:29.006Z,213.97
2023-07-08T06:22:46.479Z,217.42
2023-07-08T06:23:29.944Z,217.71
2023-07-08T06:24:28.920Z,218.49
2023-07-08T06:25:28.929Z,220.06
2023-07-08T06:26:28.931Z,225.35
2023-07-08T06:27:28.905Z,228.85
2023-07-08T06:28:28.967Z,229.33
2023-07-08T06:29:28.870Z,229.14
2023-07-08T06:30:28.926Z,228.15
2023-07-08T06:31:28.944Z,230.06
2023-07-08T06:32:28.901Z,224.00
2023-07-08T06:33:28.886Z,222.58
2023-07-08T06:34:28.885Z,221.47
2023-07-08T06:35:28.892Z,222.62
2023-07-08T06:36:28.850Z,222.44
2023-07-08T06:37:28.917Z,222.89
2023-07-08T06:38:29.009Z,219.77
2023-07-08T06:39:29.022Z,219.76
2023-07-08T06:40:29.052Z,220.21
2023-07-08T06:41:29.133Z,217.68
2023-07-08T06:42:29.173Z,219.58
2023-07-08T06:43:29.255Z,218.54
2023-07-08T06:44:29.359Z,213.43
2023-07-08T06:45:29.374Z,211.16
2023-07-08T06:46:29.462Z,212.64
2023-07-08T06:47:29.463Z,208.66
2023-07-08T06:48:29.549Z,206.89
2023-07-08T06:49:29.601Z,203.89
2023-07-08T06:50:29.604Z,202.06
2023-07-08T06:51:29.677Z,198.42
2023-07-08T06:52:29.724Z,196.85
2023-07-08T06:53:29.780Z,198.15
2023-07-08T06:54:29.836Z,197.51
2023-07-08T06:55:29.837Z,195.30
2023-07-08T06:56:29.953Z,196.78
2023-07-08T06:57:29.987Z,194.15
2023-07-08T06:58:30.025Z,194.47
2023-07-08T06:59:30.089Z,189.46
2023-07-08T07:00:30.127Z,191.03
2023-07-08T07:01:30.199Z,190.84
2023-07-08T07:02:30.251Z,189.34
2023-07-08T07:03:30.341Z,189.00
2023-07-08T07:04:30.318Z,186.83
2023-07-08T07:05:30.317Z,188.90
2023-07-08T07:06:30.331Z,188.34
2023-07-08T07:07:30.343Z,191.25
2023-07-08T07:08:30.339Z,185.88
2023-07-08T07:09:30.417Z,185.04
2023-07-08T07:10:30.461Z,185.12
2023-07-08T07:11:30.520Z,180.83
2023-07-08T07:12:30.580Z,181.50
2023-07-08T07:13:30.666Z,182.72
2023-07-08T07:15:30.717Z,183.53
2023-07-08T07:16:30.674Z,178.47
2023-07-08T07:17:30.748Z,180.90
2023-07-08T07:18:30.688Z,178.79
2023-07-08T07:19:30.621Z,180.41
2023-07-08T07:20:30.593Z,179.30
2023-07-08T07:21:30.639Z,179.61
2023-07-08T07:22:30.626Z,179.63
2023-07-08T07:23:30.597Z,175.82
2023-07-08T07:24:30.630Z,179.46
2023-07-08T07:25:30.600Z,178.35
2023-07-08T07:26:30.568Z,176.08
2023-07-08T07:27:30.580Z,178.53
2023-07-08T07:28:30.709Z,180.97
2023-07-08T07:29:30.556Z,176.31
2023-07-08T07:30:30.546Z,177.38
2023-07-08T07:31:30.586Z,177.23
2023-07-08T07:32:30.602Z,177.53
2023-07-08T07:33:30.575Z,174.01
2023-07-08T07:34:30.589Z,176.18
2023-07-08T07:35:30.528Z,178.54
2023-07-08T07:36:30.532Z,174.77
2023-07-08T07:37:30.540Z,176.18
2023-07-08T07:38:30.501Z,173.00
2023-07-08T07:39:30.506Z,171.98
2023-07-08T07:40:30.495Z,169.78
2023-07-08T07:41:30.468Z,172.33
2023-07-08T07:42:30.493Z,175.20
2023-07-08T07:43:30.478Z,174.38
2023-07-08T07:44:30.479Z,173.98
2023-07-08T07:45:30.468Z,175.28
2023-07-08T07:46:31.284Z,177.39
2023-07-08T07:47:31.531Z,172.71
2023-07-08T07:48:30.449Z,175.11
2023-07-08T07:49:30.421Z,175.20
2023-07-08T07:50:30.408Z,174.44
2023-07-08T07:51:30.438Z,171.65
2023-07-08T07:52:30.402Z,172.12
2023-07-08T07:53:30.403Z,166.26
2023-07-08T07:54:30.385Z,169.66
2023-07-08T07:55:30.363Z,171.86
2023-07-08T07:56:30.367Z,168.03
2023-07-08T07:57:30.332Z,171.97
2023-07-08T07:58:30.441Z,171.56
2023-07-08T07:59:30.511Z,169.90
2023-07-08T08:00:30.558Z,170.91
2023-07-08T08:01:30.649Z,171.90
2023-07-08T08:02:30.683Z,170.39
2023-07-08T08:03:30.772Z,169.73
2023-07-08T08:04:30.799Z,172.64
2023-07-08T08:05:30.857Z,169.80
2023-07-08T08:06:30.950Z,170.84
2023-07-08T08:07:30.956Z,170.47
2023-07-08T08:08:31.030Z,168.75
2023-07-08T08:09:31.079Z,168.97
2023-07-08T08:10:31.132Z,169.64
2023-07-08T08:11:31.246Z,169.84
2023-07-08T08:12:40.830Z,168.85
2023-07-08T08:13:32.325Z,169.13
2023-07-08T08:14:31.349Z,169.34
2023-07-08T08:15:31.278Z,169.75
2023-07-08T08:16:31.292Z,171.24
2023-07-08T08:17:31.374Z,172.59
2023-07-08T08:18:31.348Z,169.02
2023-07-08T08:19:31.249Z,170.10
2023-07-08T08:20:31.256Z,164.54
2023-07-08T08:21:31.249Z,168.38
2023-07-08T08:22:31.269Z,163.94
2023-07-08T08:23:31.376Z,163.40
2023-07-08T08:24:31.477Z,165.40
2023-07-08T08:25:31.421Z,162.46
2023-07-08T08:26:31.419Z,161.70
2023-07-08T08:27:31.408Z,159.22
2023-07-08T08:28:31.465Z,159.69
2023-07-08T08:29:31.510Z,158.73
2023-07-08T08:30:31.605Z,156.97
2023-07-08T08:31:31.665Z,157.72
2023-07-08T08:32:31.740Z,156.25
2023-07-08T08:33:31.784Z,157.42
2023-07-08T08:34:31.801Z,152.36
2023-07-08T08:35:31.951Z,155.30
2023-07-08T08:36:31.878Z,151.73
2023-07-08T08:37:31.848Z,150.16
2023-07-08T08:38:31.871Z,153.06
2023-07-08T08:39:31.835Z,153.80
2023-07-08T08:40:31.825Z,149.18
2023-07-08T08:41:31.907Z,149.58
2023-07-08T08:42:31.909Z,148.54
2023-07-08T08:43:31.930Z,150.35
2023-07-08T08:44:32.011Z,151.02
2023-07-08T08:45:32.049Z,152.51
2023-07-08T08:46:32.129Z,155.85
2023-07-08T08:47:32.121Z,156.30
2023-07-08T08:48:32.170Z,155.84
2023-07-08T08:49:32.222Z,154.08
2023-07-08T08:50:32.279Z,154.23
2023-07-08T08:51:32.337Z,151.90
2023-07-08T08:52:32.401Z,151.47
2023-07-08T08:53:32.504Z,150.83
2023-07-08T08:54:32.510Z,148.56
2023-07-08T08:55:32.570Z,148.18
2023-07-08T08:56:32.640Z,146.88
2023-07-08T08:57:32.740Z,147.35
2023-07-08T08:58:32.796Z,145.60
2023-07-08T08:59:32.803Z,141.71
2023-07-08T09:00:32.862Z,143.34
2023-07-08T09:01:33.342Z,143.89
2023-07-08T09:02:32.988Z,144.05
2023-07-08T09:03:33.020Z,144.61
2023-07-08T09:04:32.994Z,147.35
2023-07-08T09:05:33.053Z,146.20
2023-07-08T09:06:33.133Z,148.28
2023-07-08T09:07:33.197Z,147.27
2023-07-08T09:08:33.282Z,146.80
2023-07-08T09:09:33.352Z,143.33
2023-07-08T09:10:33.238Z,143.74
2023-07-08T09:11:33.224Z,151.61
2023-07-08T09:12:33.235Z,149.09
2023-07-08T09:13:33.291Z,147.23
2023-07-08T09:14:33.246Z,144.75
2023-07-08T09:15:33.293Z,139.47
2023-07-08T09:16:33.262Z,140.35
2023-07-08T09:17:36.278Z,135.54
2023-07-08T09:18:33.306Z,135.61
2023-07-08T09:19:33.259Z,135.94
2023-07-08T09:20:33.280Z,135.08
2023-07-08T09:21:33.257Z,133.02
2023-07-08T09:22:33.264Z,131.99
2023-07-08T09:23:33.240Z,128.68
2023-07-08T09:24:33.232Z,129.14
2023-07-08T09:25:33.220Z,131.32
2023-07-08T09:26:33.224Z,124.91
2023-07-08T09:27:33.236Z,123.96
2023-07-08T09:28:33.195Z,120.14
2023-07-08T09:29:33.209Z,120.70
2023-07-08T09:30:33.186Z,122.19
2023-07-08T09:31:33.254Z,121.92
2023-07-08T09:32:33.372Z,118.92
2023-07-08T09:33:34.413Z,118.67
2023-07-08T09:34:33.173Z,117.31
2023-07-08T09:35:33.166Z,119.17
2023-07-08T09:36:33.148Z,118.48
2023-07-08T09:37:33.223Z,118.90
2023-07-08T09:38:33.164Z,119.11
2023-07-08T09:39:33.142Z,116.17
2023-07-08T09:40:33.106Z,112.38
2023-07-08T09:41:33.122Z,111.21
2023-07-08T09:42:33.129Z,109.51
2023-07-08T09:43:33.098Z,108.22
2023-07-08T09:44:33.108Z,107.62
2023-07-08T09:45:33.084Z,105.56
2023-07-08T09:46:33.183Z,109.49
2023-07-08T09:47:33.179Z,112.02
2023-07-08T09:48:33.085Z,110.98
2023-07-08T09:49:33.040Z,109.24
2023-07-08T09:50:33.057Z,108.36
2023-07-08T09:51:33.046Z,101.75
2023-07-08T09:52:33.026Z,105.52
2023-07-08T09:53:33.030Z,107.82
2023-07-08T09:54:33.012Z,103.91
2023-07-08T09:55:33.141Z,104.70
2023-07-08T09:56:32.977Z,101.98
2023-07-08T09:57:33.022Z,102.16
2023-07-08T09:58:33.065Z,102.46
2023-07-08T09:59:33.146Z,101.78
2023-07-08T10:00:33.079Z,102.12
2023-07-08T10:01:33.081Z,102.92
2023-07-08T10:02:33.225Z,101.84
2023-07-08T10:03:33.228Z,103.66
2023-07-08T10:04:33.224Z,101.33
2023-07-08T10:05:33.084Z,101.65
2023-07-08T10:06:33.121Z,97.29
2023-07-08T10:07:33.160Z,97.07
2023-07-08T10:08:33.192Z,99.70
2023-07-08T10:09:33.231Z,95.71
2023-07-08T10:10:33.250Z,96.16
2023-07-08T10:11:33.330Z,97.59
2023-07-08T10:12:33.483Z,96.82
2023-07-08T10:13:33.508Z,92.83
2023-07-08T10:14:33.459Z,100.90
2023-07-08T10:15:33.483Z,99.01
2023-07-08T10:16:33.508Z,97.18
2023-07-08T10:17:33.688Z,97.33
2023-07-08T10:18:33.571Z,97.50
2023-07-08T10:19:34.395Z,102.36
2023-07-08T10:20:33.557Z,104.92
2023-07-08T10:21:33.529Z,101.84
2023-07-08T10:22:33.566Z,94.93
2023-07-08T10:23:33.584Z,92.54
2023-07-08T10:24:33.561Z,94.39
2023-07-08T10:25:33.562Z,92.09
2023-07-08T10:26:33.583Z,86.29
2023-07-08T10:27:33.684Z,84.54
2023-07-08T10:28:33.584Z,86.84
2023-07-08T10:29:33.669Z,87.62
2023-07-08T10:30:33.808Z,86.12
2023-07-08T10:31:33.891Z,84.67
2023-07-08T10:32:33.870Z,88.11
2023-07-08T10:33:33.841Z,90.90
2023-07-08T10:34:33.918Z,90.53
2023-07-08T10:35:34.506Z,86.70
2023-07-08T10:36:34.036Z,81.59
2023-07-08T10:37:34.077Z,84.41
2023-07-08T10:38:34.266Z,88.48
2023-07-08T10:39:34.295Z,87.77
2023-07-08T10:40:34.306Z,89.02
2023-07-08T10:41:34.304Z,84.29
2023-07-08T10:42:34.326Z,81.03
2023-07-08T10:43:34.414Z,87.18
2023-07-08T10:44:34.403Z,82.43
2023-07-08T10:45:34.490Z,84.80
2023-07-08T10:46:34.481Z,77.51
2023-07-08T10:47:34.544Z,77.87
2023-07-08T10:48:34.475Z,81.61
2023-07-08T10:49:34.493Z,79.93
2023-07-08T10:50:34.454Z,82.71
2023-07-08T10:51:34.523Z,77.35
2023-07-08T10:52:34.482Z,79.16
2023-07-08T10:53:34.510Z,82.29
2023-07-08T10:54:34.527Z,81.25
2023-07-08T10:55:34.552Z,83.40
2023-07-08T10:56:34.530Z,83.74
2023-07-08T10:57:34.525Z,80.01
2023-07-08T10:58:34.541Z,69.68
2023-07-08T10:59:34.653Z,80.74
2023-07-08T11:00:34.518Z,78.66
2023-07-08T11:01:34.573Z,75.69
2023-07-08T11:02:34.630Z,71.20
2023-07-08T11:03:34.630Z,73.33
2023-07-08T11:04:34.576Z,73.96
2023-07-08T11:05:34.644Z,77.43
2023-07-08T11:06:34.658Z,73.59
2023-07-08T11:07:34.658Z,77.30
2023-07-08T11:08:34.637Z,75.67
2023-07-08T11:09:34.701Z,76.03
2023-07-08T11:10:36.705Z,78.77
2023-07-08T11:11:34.709Z,75.48
2023-07-08T11:12:34.691Z,77.57
2023-07-08T11:13:34.720Z,67.56
2023-07-08T11:14:34.722Z,64.67
2023-07-08T11:15:34.755Z,75.42
2023-07-08T11:16:36.872Z,74.17
2023-07-08T11:17:34.871Z,84.90
2023-07-08T11:18:34.919Z,88.79
2023-07-08T11:19:34.854Z,96.77
2023-07-08T11:20:34.885Z,99.41
2023-07-08T11:21:34.831Z,103.37
2023-07-08T11:22:34.845Z,112.69
2023-07-08T11:23:34.868Z,112.39
2023-07-08T11:24:34.821Z,115.91
2023-07-08T11:25:34.889Z,116.19
2023-07-08T11:26:34.900Z,120.97
2023-07-08T11:27:34.903Z,124.24
2023-07-08T11:28:34.940Z,123.28
2023-07-08T11:29:34.915Z,125.47
2023-07-08T11:30:34.956Z,128.27
2023-07-08T11:31:35.165Z,129.55
2023-07-08T11:32:35.087Z,130.36
2023-07-08T11:33:36.216Z,134.08
2023-07-08T11:34:34.983Z,135.29
2023-07-08T11:35:34.995Z,136.84
2023-07-08T11:36:34.996Z,141.58
2023-07-08T11:37:34.998Z,140.65
2023-07-08T11:38:34.987Z,140.96
2023-07-08T11:39:34.968Z,145.59
2023-07-08T11:40:34.995Z,147.34
2023-07-08T11:41:34.979Z,148.46
2023-07-08T11:42:35.008Z,151.45
2023-07-08T11:43:35.012Z,149.56
2023-07-08T11:44:37.133Z,153.11
2023-07-08T11:45:35.018Z,157.61
2023-07-08T11:46:35.031Z,160.03
2023-07-08T11:47:35.135Z,157.36
2023-07-08T11:48:35.090Z,162.64
2023-07-08T11:49:35.064Z,158.37
2023-07-08T11:50:34.968Z,160.96
2023-07-08T11:51:34.934Z,162.66
2023-07-08T11:52:34.986Z,162.30
2023-07-08T11:53:35.066Z,165.82
2023-07-08T11:54:34.940Z,167.93
2023-07-08T11:55:34.931Z,167.41
2023-07-08T11:56:34.921Z,166.08
2023-07-08T11:57:34.946Z,169.34
2023-07-08T11:58:34.951Z,171.64
2023-07-08T11:59:34.898Z,169.75
2023-07-08T12:00:34.930Z,172.59
2023-07-08T12:01:34.924Z,172.22
2023-07-08T12:02:34.959Z,173.78
2023-07-08T12:03:34.920Z,177.18
2023-07-08T12:04:34.886Z,178.54
2023-07-08T12:05:34.857Z,176.08
2023-07-08T12:06:34.874Z,177.81
2023-07-08T12:07:35.003Z,176.00
2023-07-08T12:08:34.840Z,178.41
2023-07-08T12:09:34.864Z,178.37
2023-07-08T12:10:34.855Z,182.74
2023-07-08T12:11:34.841Z,181.15
2023-07-08T12:12:34.848Z,183.93
2023-07-08T12:13:34.862Z,184.65
2023-07-08T12:14:34.857Z,184.68
2023-07-08T12:15:34.794Z,183.30
2023-07-08T12:16:34.852Z,182.93
2023-07-08T12:17:34.817Z,187.15
2023-07-08T12:18:34.826Z,185.35
2023-07-08T12:19:35.979Z,190.09
2023-07-08T12:20:34.799Z,186.73
2023-07-08T12:21:34.795Z,186.68
2023-07-08T12:22:34.781Z,187.01
2023-07-08T12:23:34.728Z,189.08
2023-07-08T12:24:34.766Z,186.16
2023-07-08T12:25:34.772Z,191.17
2023-07-08T12:26:34.729Z,187.35
2023-07-08T12:27:34.732Z,190.21
2023-07-08T12:28:34.827Z,191.15
2023-07-08T12:29:34.750Z,190.31
2023-07-08T12:30:34.737Z,189.95
2023-07-08T12:31:34.888Z,190.73